sensor_id;sensor_type;location;lat;lon;timestamp;temperature;humidity
22321;DHT22;11328;53.928;18.522;2023-08-06T00:02:06;18.30;99.90
22321;DHT22;11328;53.928;18.522;2023-08-06T00:04:33;18.30;99.90
22321;DHT22;11328;53.928;18.522;2023-08-06T00:07:00;18.20;99.90
22321;DHT22;11328;53.928;18.522;2023-08-06T00:09:27;18.00;99.90
22321;DHT22;11328;53.928;18.522;2023-08-06T00:11:54;18.00;99.90
22321;DHT22;11328;53.928;18.522;2023-08-06T00:14:21;17.90;99.90
22321;DHT22;11328;53.928;18.522;2023-08-06T00:16:48;17.90;99.90
22321;DHT22;11328;53.928;18.522;2023-08-06T00:19:15;17.90;99.90
22321;DHT22;11328;53.928;18.522;2023-08-06T00:21:42;17.90;99.90
22321;DHT22;11328;53.928;18.522;2023-08-06T00:24:09;18.00;99.90
22321;DHT22;11328;53.928;18.522;2023-08-06T00:26:36;17.80;99.90
22321;DHT22;11328;53.928;18.522;2023-08-06T00:29:03;17.70;99.90
22321;DHT22;11328;53.928;18.522;2023-08-06T00:31:30;17.70;99.90
22321;DHT22;11328;53.928;18.522;2023-08-06T00:33:56;17.80;99.90
22321;DHT22;11328;53.928;18.522;2023-08-06T00:36:23;17.80;99.90
22321;DHT22;11328;53.928;18.522;2023-08-06T00:38:50;17.80;99.90
22321;DHT22;11328;53.928;18.522;2023-08-06T00:41:18;17.90;99.90
22321;DHT22;11328;53.928;18.522;2023-08-06T00:43:45;17.90;99.90
22321;DHT22;11328;53.928;18.522;2023-08-06T00:46:12;17.80;99.90
22321;DHT22;11328;53.928;18.522;2023-08-06T00:48:40;17.80;99.90
22321;DHT22;11328;53.928;18.522;2023-08-06T00:51:11;17.80;99.90
22321;DHT22;11328;53.928;18.522;2023-08-06T00:53:39;17.90;99.90
22321;DHT22;11328;53.928;18.522;2023-08-06T00:56:07;17.90;99.90
22321;DHT22;11328;53.928;18.522;2023-08-06T00:58:36;17.90;99.90
22321;DHT22;11328;53.928;18.522;2023-08-06T01:01:04;17.90;99.90
22321;DHT22;11328;53.928;18.522;2023-08-06T01:03:32;17.80;99.90
22321;DHT22;11328;53.928;18.522;2023-08-06T01:05:59;17.90;99.90
22321;DHT22;11328;53.928;18.522;2023-08-06T01:08:49;17.90;99.90
22321;DHT22;11328;53.928;18.522;2023-08-06T01:11:44;18.00;99.90
22321;DHT22;11328;53.928;18.522;2023-08-06T01:14:50;18.00;99.90
22321;DHT22;11328;53.928;18.522;2023-08-06T01:17:19;18.00;99.90
22321;DHT22;11328;53.928;18.522;2023-08-06T01:19:46;18.10;99.90
22321;DHT22;11328;53.928;18.522;2023-08-06T01:22:13;18.10;99.90
22321;DHT22;11328;53.928;18.522;2023-08-06T01:24:46;18.00;99.90
22321;DHT22;11328;53.928;18.522;2023-08-06T01:27:24;18.10;99.90
22321;DHT22;11328;53.928;18.522;2023-08-06T01:30:06;18.10;99.90
22321;DHT22;11328;53.928;18.522;2023-08-06T01:32:42;18.20;99.90
22321;DHT22;11328;53.928;18.522;2023-08-06T01:35:14;18.20;99.90
22321;DHT22;11328;53.928;18.522;2023-08-06T01:37:43;18.30;99.90
22321;DHT22;11328;53.928;18.522;2023-08-06T01:40:12;18.30;99.90
22321;DHT22;11328;53.928;18.522;2023-08-06T01:42:39;18.30;99.90
22321;DHT22;11328;53.928;18.522;2023-08-06T01:45:07;18.30;99.90
22321;DHT22;11328;53.928;18.522;2023-08-06T01:47:35;18.30;99.90
22321;DHT22;11328;53.928;18.522;2023-08-06T01:50:03;18.50;99.90
22321;DHT22;11328;53.928;18.522;2023-08-06T01:52:30;18.30;99.90
22321;DHT22;11328;53.928;18.522;2023-08-06T01:54:57;18.20;99.90
22321;DHT22;11328;53.928;18.522;2023-08-06T01:57:24;18.10;99.90
22321;DHT22;11328;53.928;18.522;2023-08-06T01:59:51;18.10;99.90
22321;DHT22;11328;53.928;18.522;2023-08-06T02:02:18;18.10;99.90
22321;DHT22;11328;53.928;18.522;2023-08-06T02:04:45;18.10;99.90
22321;DHT22;11328;53.928;18.522;2023-08-06T02:07:12;18.10;99.90
22321;DHT22;11328;53.928;18.522;2023-08-06T02:09:39;18.10;99.90
22321;DHT22;11328;53.928;18.522;2023-08-06T02:12:06;18.20;99.90
22321;DHT22;11328;53.928;18.522;2023-08-06T02:14:34;18.10;99.90
22321;DHT22;11328;53.928;18.522;2023-08-06T02:17:01;18.00;99.90
22321;DHT22;11328;53.928;18.522;2023-08-06T02:19:28;18.00;99.90
22321;DHT22;11328;53.928;18.522;2023-08-06T02:21:55;18.00;99.90
22321;DHT22;11328;53.928;18.522;2023-08-06T02:24:22;17.90;99.90
22321;DHT22;11328;53.928;18.522;2023-08-06T02:26:49;18.00;99.90
22321;DHT22;11328;53.928;18.522;2023-08-06T02:29:18;17.90;99.90
22321;DHT22;11328;53.928;18.522;2023-08-06T02:31:45;17.90;99.90
22321;DHT22;11328;53.928;18.522;2023-08-06T02:34:12;18.00;99.90
22321;DHT22;11328;53.928;18.522;2023-08-06T02:36:39;17.90;99.90
22321;DHT22;11328;53.928;18.522;2023-08-06T02:39:06;17.90;99.90
22321;DHT22;11328;53.928;18.522;2023-08-06T02:41:33;17.90;99.90
22321;DHT22;11328;53.928;18.522;2023-08-06T02:44:00;17.90;99.90
22321;DHT22;11328;53.928;18.522;2023-08-06T02:46:27;17.90;99.90
22321;DHT22;11328;53.928;18.522;2023-08-06T02:48:54;17.90;99.90
22321;DHT22;11328;53.928;18.522;2023-08-06T02:51:21;17.80;99.90
22321;DHT22;11328;53.928;18.522;2023-08-06T02:53:48;17.80;99.90
22321;DHT22;11328;53.928;18.522;2023-08-06T02:56:16;17.60;99.90
22321;DHT22;11328;53.928;18.522;2023-08-06T02:58:43;17.60;99.90
22321;DHT22;11328;53.928;18.522;2023-08-06T03:01:10;17.70;99.90
22321;DHT22;11328;53.928;18.522;2023-08-06T03:03:37;17.60;99.90
22321;DHT22;11328;53.928;18.522;2023-08-06T03:06:04;17.60;99.90
22321;DHT22;11328;53.928;18.522;2023-08-06T03:08:31;17.70;99.90
22321;DHT22;11328;53.928;18.522;2023-08-06T03:10:58;17.70;99.90
22321;DHT22;11328;53.928;18.522;2023-08-06T03:13:25;17.70;99.90
22321;DHT22;11328;53.928;18.522;2023-08-06T03:15:53;17.70;99.90
22321;DHT22;11328;53.928;18.522;2023-08-06T03:18:25;17.60;99.90
22321;DHT22;11328;53.928;18.522;2023-08-06T03:20:55;17.60;99.90
22321;DHT22;11328;53.928;18.522;2023-08-06T03:23:22;17.60;99.90
22321;DHT22;11328;53.928;18.522;2023-08-06T03:25:49;17.70;99.90
22321;DHT22;11328;53.928;18.522;2023-08-06T03:28:16;17.80;99.90
22321;DHT22;11328;53.928;18.522;2023-08-06T03:30:43;17.80;99.90
22321;DHT22;11328;53.928;18.522;2023-08-06T03:33:10;17.90;99.90
22321;DHT22;11328;53.928;18.522;2023-08-06T03:35:37;18.00;99.90
22321;DHT22;11328;53.928;18.522;2023-08-06T03:38:04;18.00;99.90
22321;DHT22;11328;53.928;18.522;2023-08-06T03:40:31;18.00;99.90
22321;DHT22;11328;53.928;18.522;2023-08-06T03:42:58;18.10;99.90
22321;DHT22;11328;53.928;18.522;2023-08-06T03:45:24;18.10;99.90
22321;DHT22;11328;53.928;18.522;2023-08-06T03:47:51;18.20;99.90
22321;DHT22;11328;53.928;18.522;2023-08-06T03:50:18;18.20;99.90
22321;DHT22;11328;53.928;18.522;2023-08-06T03:52:45;18.20;99.90
22321;DHT22;11328;53.928;18.522;2023-08-06T03:55:12;18.20;99.90
22321;DHT22;11328;53.928;18.522;2023-08-06T03:57:39;18.30;99.90
22321;DHT22;11328;53.928;18.522;2023-08-06T04:00:07;18.20;99.90
22321;DHT22;11328;53.928;18.522;2023-08-06T04:02:34;18.20;99.90
22321;DHT22;11328;53.928;18.522;2023-08-06T04:05:01;18.30;99.90
22321;DHT22;11328;53.928;18.522;2023-08-06T04:07:28;18.30;99.90
22321;DHT22;11328;53.928;18.522;2023-08-06T04:09:58;18.40;99.90
22321;DHT22;11328;53.928;18.522;2023-08-06T04:12:26;18.50;99.90
22321;DHT22;11328;53.928;18.522;2023-08-06T04:14:54;18.50;99.90
22321;DHT22;11328;53.928;18.522;2023-08-06T04:17:22;18.50;99.90
22321;DHT22;11328;53.928;18.522;2023-08-06T04:19:51;18.50;99.90
22321;DHT22;11328;53.928;18.522;2023-08-06T04:22:20;18.60;99.90
22321;DHT22;11328;53.928;18.522;2023-08-06T04:24:48;18.50;99.90
22321;DHT22;11328;53.928;18.522;2023-08-06T04:27:16;18.60;99.90
22321;DHT22;11328;53.928;18.522;2023-08-06T04:29:43;18.60;99.90
22321;DHT22;11328;53.928;18.522;2023-08-06T04:32:10;18.70;99.90
22321;DHT22;11328;53.928;18.522;2023-08-06T04:34:37;18.70;99.90
22321;DHT22;11328;53.928;18.522;2023-08-06T04:37:05;18.80;99.90
22321;DHT22;11328;53.928;18.522;2023-08-06T04:39:32;18.70;99.90
22321;DHT22;11328;53.928;18.522;2023-08-06T04:41:59;18.70;99.90
22321;DHT22;11328;53.928;18.522;2023-08-06T04:44:26;18.80;99.90
22321;DHT22;11328;53.928;18.522;2023-08-06T04:46:53;18.90;99.90
22321;DHT22;11328;53.928;18.522;2023-08-06T04:49:23;18.90;99.90
22321;DHT22;11328;53.928;18.522;2023-08-06T04:51:51;18.80;99.90
22321;DHT22;11328;53.928;18.522;2023-08-06T04:54:18;18.80;99.90
22321;DHT22;11328;53.928;18.522;2023-08-06T04:56:45;18.80;99.90
22321;DHT22;11328;53.928;18.522;2023-08-06T04:59:12;18.80;99.90
22321;DHT22;11328;53.928;18.522;2023-08-06T05:01:39;18.80;99.90
22321;DHT22;11328;53.928;18.522;2023-08-06T05:04:06;18.90;99.90
22321;DHT22;11328;53.928;18.522;2023-08-06T05:06:33;18.90;99.90
22321;DHT22;11328;53.928;18.522;2023-08-06T05:09:00;18.90;99.90
22321;DHT22;11328;53.928;18.522;2023-08-06T05:11:27;19.00;99.90
22321;DHT22;11328;53.928;18.522;2023-08-06T05:13:54;19.00;99.90
22321;DHT22;11328;53.928;18.522;2023-08-06T05:16:21;19.00;99.90
22321;DHT22;11328;53.928;18.522;2023-08-06T05:18:48;19.00;99.90
22321;DHT22;11328;53.928;18.522;2023-08-06T05:21:15;19.00;99.90
22321;DHT22;11328;53.928;18.522;2023-08-06T05:23:43;18.90;99.90
22321;DHT22;11328;53.928;18.522;2023-08-06T05:26:10;18.90;99.90
22321;DHT22;11328;53.928;18.522;2023-08-06T05:28:37;18.80;99.90
22321;DHT22;11328;53.928;18.522;2023-08-06T05:31:04;18.90;99.90
22321;DHT22;11328;53.928;18.522;2023-08-06T05:33:31;18.90;99.90
22321;DHT22;11328;53.928;18.522;2023-08-06T05:35:58;18.80;99.90
22321;DHT22;11328;53.928;18.522;2023-08-06T05:38:25;18.80;99.90
22321;DHT22;11328;53.928;18.522;2023-08-06T05:40:53;18.90;99.90
22321;DHT22;11328;53.928;18.522;2023-08-06T05:43:20;18.90;99.90
22321;DHT22;11328;53.928;18.522;2023-08-06T05:45:48;19.00;99.90
22321;DHT22;11328;53.928;18.522;2023-08-06T05:48:16;18.90;99.90
22321;DHT22;11328;53.928;18.522;2023-08-06T05:50:43;19.00;99.90
22321;DHT22;11328;53.928;18.522;2023-08-06T05:53:10;19.00;99.90
22321;DHT22;11328;53.928;18.522;2023-08-06T05:55:38;19.10;99.90
22321;DHT22;11328;53.928;18.522;2023-08-06T05:58:05;19.10;99.90
22321;DHT22;11328;53.928;18.522;2023-08-06T06:00:32;19.10;99.90
22321;DHT22;11328;53.928;18.522;2023-08-06T06:02:59;19.20;99.90
22321;DHT22;11328;53.928;18.522;2023-08-06T06:05:26;19.30;99.90
22321;DHT22;11328;53.928;18.522;2023-08-06T06:07:53;19.20;99.90
22321;DHT22;11328;53.928;18.522;2023-08-06T06:10:20;19.30;99.90
22321;DHT22;11328;53.928;18.522;2023-08-06T06:12:47;19.30;99.90
22321;DHT22;11328;53.928;18.522;2023-08-06T06:15:14;19.20;99.90
22321;DHT22;11328;53.928;18.522;2023-08-06T06:17:41;19.30;99.90
22321;DHT22;11328;53.928;18.522;2023-08-06T06:20:08;19.20;99.90
22321;DHT22;11328;53.928;18.522;2023-08-06T06:22:35;19.20;99.90
22321;DHT22;11328;53.928;18.522;2023-08-06T06:25:02;19.30;99.90
22321;DHT22;11328;53.928;18.522;2023-08-06T06:27:30;19.30;99.90
22321;DHT22;11328;53.928;18.522;2023-08-06T06:29:57;19.40;99.90
22321;DHT22;11328;53.928;18.522;2023-08-06T06:32:24;19.50;99.90
22321;DHT22;11328;53.928;18.522;2023-08-06T06:34:51;19.60;99.90
22321;DHT22;11328;53.928;18.522;2023-08-06T06:37:18;19.50;99.90
22321;DHT22;11328;53.928;18.522;2023-08-06T06:39:45;19.50;99.90
22321;DHT22;11328;53.928;18.522;2023-08-06T06:42:12;19.60;99.90
22321;DHT22;11328;53.928;18.522;2023-08-06T06:44:39;19.50;99.90
22321;DHT22;11328;53.928;18.522;2023-08-06T06:47:06;19.60;99.90
22321;DHT22;11328;53.928;18.522;2023-08-06T06:49:33;19.60;99.90
22321;DHT22;11328;53.928;18.522;2023-08-06T06:52:00;19.60;99.90
22321;DHT22;11328;53.928;18.522;2023-08-06T06:54:27;19.60;99.90
22321;DHT22;11328;53.928;18.522;2023-08-06T06:56:54;19.60;99.90
22321;DHT22;11328;53.928;18.522;2023-08-06T06:59:20;19.60;99.90
22321;DHT22;11328;53.928;18.522;2023-08-06T07:01:47;19.60;99.90
22321;DHT22;11328;53.928;18.522;2023-08-06T07:04:14;19.70;99.90
22321;DHT22;11328;53.928;18.522;2023-08-06T07:06:41;19.80;99.90
22321;DHT22;11328;53.928;18.522;2023-08-06T07:09:08;19.80;99.90
22321;DHT22;11328;53.928;18.522;2023-08-06T07:11:35;19.90;99.90
22321;DHT22;11328;53.928;18.522;2023-08-06T07:14:02;20.00;99.90
22321;DHT22;11328;53.928;18.522;2023-08-06T07:16:29;20.00;99.90
22321;DHT22;11328;53.928;18.522;2023-08-06T07:18:56;20.10;99.90
22321;DHT22;11328;53.928;18.522;2023-08-06T07:21:23;20.00;99.90
22321;DHT22;11328;53.928;18.522;2023-08-06T07:23:50;20.10;99.90
22321;DHT22;11328;53.928;18.522;2023-08-06T07:26:17;20.10;99.90
22321;DHT22;11328;53.928;18.522;2023-08-06T07:28:44;20.10;99.90
22321;DHT22;11328;53.928;18.522;2023-08-06T07:31:12;20.20;99.90
22321;DHT22;11328;53.928;18.522;2023-08-06T07:33:39;20.20;99.90
22321;DHT22;11328;53.928;18.522;2023-08-06T07:36:11;20.20;99.90
22321;DHT22;11328;53.928;18.522;2023-08-06T07:38:39;20.20;99.90
22321;DHT22;11328;53.928;18.522;2023-08-06T07:41:07;20.20;99.90
22321;DHT22;11328;53.928;18.522;2023-08-06T07:43:35;20.30;99.90
22321;DHT22;11328;53.928;18.522;2023-08-06T07:46:03;20.40;99.90
22321;DHT22;11328;53.928;18.522;2023-08-06T07:48:30;20.40;99.90
22321;DHT22;11328;53.928;18.522;2023-08-06T07:50:57;20.50;99.90
22321;DHT22;11328;53.928;18.522;2023-08-06T07:53:25;20.50;99.90
22321;DHT22;11328;53.928;18.522;2023-08-06T07:55:58;20.50;99.90
22321;DHT22;11328;53.928;18.522;2023-08-06T07:58:26;20.50;99.90
22321;DHT22;11328;53.928;18.522;2023-08-06T08:00:53;20.60;99.90
22321;DHT22;11328;53.928;18.522;2023-08-06T08:03:20;20.60;99.90
22321;DHT22;11328;53.928;18.522;2023-08-06T08:05:47;20.50;99.90
22321;DHT22;11328;53.928;18.522;2023-08-06T08:08:14;20.40;99.90
22321;DHT22;11328;53.928;18.522;2023-08-06T08:10:42;20.50;99.90
22321;DHT22;11328;53.928;18.522;2023-08-06T08:13:09;20.50;99.90
22321;DHT22;11328;53.928;18.522;2023-08-06T08:15:36;20.50;99.90
22321;DHT22;11328;53.928;18.522;2023-08-06T08:18:03;20.60;99.90
22321;DHT22;11328;53.928;18.522;2023-08-06T08:20:30;20.60;99.90
22321;DHT22;11328;53.928;18.522;2023-08-06T08:23:02;20.70;99.90
22321;DHT22;11328;53.928;18.522;2023-08-06T08:25:29;20.70;99.90
22321;DHT22;11328;53.928;18.522;2023-08-06T08:27:58;20.70;99.90
22321;DHT22;11328;53.928;18.522;2023-08-06T08:30:25;20.80;99.90
22321;DHT22;11328;53.928;18.522;2023-08-06T08:32:52;20.90;99.90
22321;DHT22;11328;53.928;18.522;2023-08-06T08:35:19;21.00;99.90
22321;DHT22;11328;53.928;18.522;2023-08-06T08:37:46;21.00;99.90
22321;DHT22;11328;53.928;18.522;2023-08-06T08:40:14;20.90;99.90
22321;DHT22;11328;53.928;18.522;2023-08-06T08:42:42;21.00;99.90
22321;DHT22;11328;53.928;18.522;2023-08-06T08:45:14;21.00;99.90
22321;DHT22;11328;53.928;18.522;2023-08-06T08:47:42;21.00;99.90
22321;DHT22;11328;53.928;18.522;2023-08-06T08:50:10;21.10;99.90
22321;DHT22;11328;53.928;18.522;2023-08-06T08:52:38;21.10;99.90
22321;DHT22;11328;53.928;18.522;2023-08-06T08:55:07;21.10;99.90
22321;DHT22;11328;53.928;18.522;2023-08-06T08:57:35;21.10;99.90
22321;DHT22;11328;53.928;18.522;2023-08-06T09:00:03;21.20;99.90
22321;DHT22;11328;53.928;18.522;2023-08-06T09:02:32;21.20;99.90
22321;DHT22;11328;53.928;18.522;2023-08-06T09:05:01;21.20;99.90
22321;DHT22;11328;53.928;18.522;2023-08-06T09:07:34;21.20;99.90
22321;DHT22;11328;53.928;18.522;2023-08-06T09:10:07;21.30;99.90
22321;DHT22;11328;53.928;18.522;2023-08-06T09:12:37;21.30;99.90
22321;DHT22;11328;53.928;18.522;2023-08-06T09:15:05;21.30;99.90
22321;DHT22;11328;53.928;18.522;2023-08-06T09:17:32;21.30;99.90
22321;DHT22;11328;53.928;18.522;2023-08-06T09:19:59;21.30;99.90
22321;DHT22;11328;53.928;18.522;2023-08-06T09:22:35;21.30;99.90
22321;DHT22;11328;53.928;18.522;2023-08-06T09:25:02;21.30;99.90
22321;DHT22;11328;53.928;18.522;2023-08-06T09:27:32;21.40;99.90
22321;DHT22;11328;53.928;18.522;2023-08-06T09:29:59;21.40;99.90
22321;DHT22;11328;53.928;18.522;2023-08-06T09:32:26;21.40;99.90
22321;DHT22;11328;53.928;18.522;2023-08-06T09:34:57;21.40;99.90
22321;DHT22;11328;53.928;18.522;2023-08-06T09:37:25;21.50;99.90
22321;DHT22;11328;53.928;18.522;2023-08-06T09:40:02;21.50;99.90
22321;DHT22;11328;53.928;18.522;2023-08-06T09:42:29;21.50;99.90
22321;DHT22;11328;53.928;18.522;2023-08-06T09:45:06;21.50;99.90
22321;DHT22;11328;53.928;18.522;2023-08-06T09:47:33;21.40;99.90
22321;DHT22;11328;53.928;18.522;2023-08-06T09:50:00;21.40;99.90
22321;DHT22;11328;53.928;18.522;2023-08-06T09:52:27;21.50;99.90
22321;DHT22;11328;53.928;18.522;2023-08-06T09:54:54;21.50;99.90
22321;DHT22;11328;53.928;18.522;2023-08-06T09:57:23;21.50;99.90
22321;DHT22;11328;53.928;18.522;2023-08-06T09:59:52;21.60;99.90
22321;DHT22;11328;53.928;18.522;2023-08-06T10:02:25;21.60;99.90
22321;DHT22;11328;53.928;18.522;2023-08-06T10:04:55;21.60;99.90
22321;DHT22;11328;53.928;18.522;2023-08-06T10:07:24;21.70;99.90
22321;DHT22;11328;53.928;18.522;2023-08-06T10:09:51;21.60;99.90
22321;DHT22;11328;53.928;18.522;2023-08-06T10:12:19;21.60;99.90
22321;DHT22;11328;53.928;18.522;2023-08-06T10:14:47;21.60;99.90
22321;DHT22;11328;53.928;18.522;2023-08-06T10:17:16;21.60;99.90
22321;DHT22;11328;53.928;18.522;2023-08-06T10:19:44;21.50;99.90
22321;DHT22;11328;53.928;18.522;2023-08-06T10:22:17;21.50;99.90
22321;DHT22;11328;53.928;18.522;2023-08-06T10:30:32;21.60;99.90
22321;DHT22;11328;53.928;18.522;2023-08-06T10:33:01;21.60;99.90
22321;DHT22;11328;53.928;18.522;2023-08-06T10:35:48;21.70;99.90
22321;DHT22;11328;53.928;18.522;2023-08-06T10:38:21;21.60;99.90
22321;DHT22;11328;53.928;18.522;2023-08-06T10:43:35;21.90;99.90
22321;DHT22;11328;53.928;18.522;2023-08-06T10:46:10;22.00;99.90
22321;DHT22;11328;53.928;18.522;2023-08-06T10:48:40;22.10;99.90
22321;DHT22;11328;53.928;18.522;2023-08-06T10:51:09;22.20;99.90
22321;DHT22;11328;53.928;18.522;2023-08-06T10:53:38;22.30;99.90
22321;DHT22;11328;53.928;18.522;2023-08-06T10:56:27;22.40;99.90
22321;DHT22;11328;53.928;18.522;2023-08-06T10:58:55;22.60;99.90
22321;DHT22;11328;53.928;18.522;2023-08-06T11:01:24;22.80;99.90
22321;DHT22;11328;53.928;18.522;2023-08-06T11:03:51;22.80;99.90
22321;DHT22;11328;53.928;18.522;2023-08-06T11:06:21;22.90;99.90
22321;DHT22;11328;53.928;18.522;2023-08-06T11:08:53;22.90;99.90
22321;DHT22;11328;53.928;18.522;2023-08-06T11:11:23;23.00;99.90
22321;DHT22;11328;53.928;18.522;2023-08-06T11:13:51;23.00;99.90
22321;DHT22;11328;53.928;18.522;2023-08-06T11:16:23;23.20;99.90
22321;DHT22;11328;53.928;18.522;2023-08-06T11:18:54;23.40;99.90
22321;DHT22;11328;53.928;18.522;2023-08-06T11:21:23;23.50;99.90
22321;DHT22;11328;53.928;18.522;2023-08-06T11:23:52;23.50;99.90
22321;DHT22;11328;53.928;18.522;2023-08-06T11:26:21;23.70;99.90
22321;DHT22;11328;53.928;18.522;2023-08-06T11:28:50;23.80;99.90
22321;DHT22;11328;53.928;18.522;2023-08-06T11:31:23;23.80;99.90
22321;DHT22;11328;53.928;18.522;2023-08-06T11:33:51;23.70;99.90
22321;DHT22;11328;53.928;18.522;2023-08-06T11:36:32;23.80;99.90
22321;DHT22;11328;53.928;18.522;2023-08-06T11:39:00;24.00;99.90
22321;DHT22;11328;53.928;18.522;2023-08-06T11:41:29;23.90;99.90
22321;DHT22;11328;53.928;18.522;2023-08-06T11:43:57;24.00;99.90
22321;DHT22;11328;53.928;18.522;2023-08-06T11:46:25;24.00;99.90
22321;DHT22;11328;53.928;18.522;2023-08-06T11:48:58;24.00;99.90
22321;DHT22;11328;53.928;18.522;2023-08-06T11:51:26;24.10;99.90
22321;DHT22;11328;53.928;18.522;2023-08-06T11:53:59;24.20;99.90
22321;DHT22;11328;53.928;18.522;2023-08-06T11:56:27;24.30;99.90
22321;DHT22;11328;53.928;18.522;2023-08-06T11:58:55;24.40;99.90
22321;DHT22;11328;53.928;18.522;2023-08-06T12:01:22;24.40;99.90
22321;DHT22;11328;53.928;18.522;2023-08-06T12:03:49;24.40;99.90
22321;DHT22;11328;53.928;18.522;2023-08-06T12:06:16;24.50;99.90
22321;DHT22;11328;53.928;18.522;2023-08-06T12:08:43;24.60;99.90
22321;DHT22;11328;53.928;18.522;2023-08-06T12:11:10;24.70;99.90
22321;DHT22;11328;53.928;18.522;2023-08-06T12:13:38;24.90;99.90
22321;DHT22;11328;53.928;18.522;2023-08-06T12:16:04;24.90;99.90
22321;DHT22;11328;53.928;18.522;2023-08-06T12:18:31;24.90;99.90
22321;DHT22;11328;53.928;18.522;2023-08-06T12:20:58;24.90;99.90
22321;DHT22;11328;53.928;18.522;2023-08-06T12:23:25;24.80;99.90
22321;DHT22;11328;53.928;18.522;2023-08-06T12:25:52;24.90;99.90
22321;DHT22;11328;53.928;18.522;2023-08-06T12:28:20;24.90;99.90
22321;DHT22;11328;53.928;18.522;2023-08-06T12:30:49;25.00;99.90
22321;DHT22;11328;53.928;18.522;2023-08-06T12:33:17;25.00;99.90
22321;DHT22;11328;53.928;18.522;2023-08-06T12:35:45;24.90;99.90
22321;DHT22;11328;53.928;18.522;2023-08-06T12:38:12;25.00;99.90
22321;DHT22;11328;53.928;18.522;2023-08-06T12:40:40;25.00;99.90
22321;DHT22;11328;53.928;18.522;2023-08-06T12:43:09;25.20;99.90
22321;DHT22;11328;53.928;18.522;2023-08-06T12:45:36;25.20;99.90
22321;DHT22;11328;53.928;18.522;2023-08-06T12:48:05;25.30;99.90
22321;DHT22;11328;53.928;18.522;2023-08-06T12:50:34;25.30;99.90
22321;DHT22;11328;53.928;18.522;2023-08-06T12:53:04;25.50;99.90
22321;DHT22;11328;53.928;18.522;2023-08-06T12:55:32;25.50;99.90
22321;DHT22;11328;53.928;18.522;2023-08-06T12:57:59;25.60;99.90
22321;DHT22;11328;53.928;18.522;2023-08-06T13:00:26;25.80;99.90
22321;DHT22;11328;53.928;18.522;2023-08-06T13:02:54;25.70;99.90
22321;DHT22;11328;53.928;18.522;2023-08-06T13:05:21;25.80;99.90
22321;DHT22;11328;53.928;18.522;2023-08-06T13:07:48;25.80;99.90
22321;DHT22;11328;53.928;18.522;2023-08-06T13:10:15;26.00;99.90
22321;DHT22;11328;53.928;18.522;2023-08-06T13:12:43;26.00;99.90
22321;DHT22;11328;53.928;18.522;2023-08-06T13:15:11;26.10;99.90
22321;DHT22;11328;53.928;18.522;2023-08-06T13:17:38;26.10;99.90
22321;DHT22;11328;53.928;18.522;2023-08-06T13:20:05;26.20;99.90
22321;DHT22;11328;53.928;18.522;2023-08-06T13:22:32;26.30;99.90
22321;DHT22;11328;53.928;18.522;2023-08-06T13:25:03;26.30;99.90
22321;DHT22;11328;53.928;18.522;2023-08-06T13:27:30;26.40;99.90
22321;DHT22;11328;53.928;18.522;2023-08-06T13:29:57;26.40;99.90
22321;DHT22;11328;53.928;18.522;2023-08-06T13:32:24;26.50;99.90
22321;DHT22;11328;53.928;18.522;2023-08-06T13:34:51;26.60;99.90
22321;DHT22;11328;53.928;18.522;2023-08-06T13:37:18;26.60;99.90
22321;DHT22;11328;53.928;18.522;2023-08-06T13:39:44;26.60;99.90
22321;DHT22;11328;53.928;18.522;2023-08-06T13:42:11;26.80;99.90
22321;DHT22;11328;53.928;18.522;2023-08-06T13:44:38;26.80;99.90
22321;DHT22;11328;53.928;18.522;2023-08-06T13:47:05;27.00;99.90
22321;DHT22;11328;53.928;18.522;2023-08-06T13:49:32;27.10;99.90
22321;DHT22;11328;53.928;18.522;2023-08-06T13:51:59;27.30;99.90
22321;DHT22;11328;53.928;18.522;2023-08-06T13:54:46;27.40;99.90
22321;DHT22;11328;53.928;18.522;2023-08-06T13:57:13;27.50;99.90
22321;DHT22;11328;53.928;18.522;2023-08-06T13:59:40;27.50;99.90
22321;DHT22;11328;53.928;18.522;2023-08-06T14:02:07;27.60;99.90
22321;DHT22;11328;53.928;18.522;2023-08-06T14:04:35;27.80;99.90
22321;DHT22;11328;53.928;18.522;2023-08-06T14:07:02;27.90;99.90
22321;DHT22;11328;53.928;18.522;2023-08-06T14:09:29;28.00;99.90
22321;DHT22;11328;53.928;18.522;2023-08-06T14:11:56;28.20;99.90
22321;DHT22;11328;53.928;18.522;2023-08-06T14:14:23;28.10;99.90
22321;DHT22;11328;53.928;18.522;2023-08-06T14:16:53;28.20;99.90
22321;DHT22;11328;53.928;18.522;2023-08-06T14:19:21;28.20;99.90
22321;DHT22;11328;53.928;18.522;2023-08-06T14:21:49;28.20;99.90
22321;DHT22;11328;53.928;18.522;2023-08-06T14:24:18;28.20;99.90
22321;DHT22;11328;53.928;18.522;2023-08-06T14:26:45;28.20;99.90
22321;DHT22;11328;53.928;18.522;2023-08-06T14:29:12;28.10;99.90
22321;DHT22;11328;53.928;18.522;2023-08-06T14:31:40;28.20;99.90
22321;DHT22;11328;53.928;18.522;2023-08-06T14:34:08;28.10;99.90
22321;DHT22;11328;53.928;18.522;2023-08-06T14:36:35;28.10;99.90
22321;DHT22;11328;53.928;18.522;2023-08-06T14:39:01;28.10;99.90
22321;DHT22;11328;53.928;18.522;2023-08-06T14:41:29;28.20;99.90
22321;DHT22;11328;53.928;18.522;2023-08-06T14:43:56;28.20;99.90
22321;DHT22;11328;53.928;18.522;2023-08-06T14:46:22;28.20;99.90
22321;DHT22;11328;53.928;18.522;2023-08-06T14:48:50;28.20;99.90
22321;DHT22;11328;53.928;18.522;2023-08-06T14:51:16;28.30;99.90
22321;DHT22;11328;53.928;18.522;2023-08-06T14:53:46;28.20;99.90
22321;DHT22;11328;53.928;18.522;2023-08-06T14:56:13;28.10;99.90
22321;DHT22;11328;53.928;18.522;2023-08-06T14:58:40;28.00;99.90
22321;DHT22;11328;53.928;18.522;2023-08-06T15:01:08;28.00;99.90
22321;DHT22;11328;53.928;18.522;2023-08-06T15:03:35;27.90;99.90
22321;DHT22;11328;53.928;18.522;2023-08-06T15:06:03;27.90;99.90
22321;DHT22;11328;53.928;18.522;2023-08-06T15:08:30;27.90;99.90
22321;DHT22;11328;53.928;18.522;2023-08-06T15:10:57;27.80;99.90
22321;DHT22;11328;53.928;18.522;2023-08-06T15:13:24;27.70;99.90
22321;DHT22;11328;53.928;18.522;2023-08-06T15:15:51;27.70;99.90
22321;DHT22;11328;53.928;18.522;2023-08-06T15:18:18;27.60;99.90
22321;DHT22;11328;53.928;18.522;2023-08-06T15:20:46;27.60;99.90
22321;DHT22;11328;53.928;18.522;2023-08-06T15:23:14;27.50;99.90
22321;DHT22;11328;53.928;18.522;2023-08-06T15:25:41;27.50;99.90
22321;DHT22;11328;53.928;18.522;2023-08-06T15:28:08;27.50;99.90
22321;DHT22;11328;53.928;18.522;2023-08-06T15:30:35;27.50;99.90